sensor_id;sensor_type;location;lat;lon;timestamp;P1;durP1;ratioP1;P2;durP2;ratioP2
1140;SDS011;559;48.628;8.924;2022-08-11T00:01:07;9.07;;;8.67;;
1140;SDS011;559;48.628;8.924;2022-08-11T00:03:40;8.93;;;8.50;;
1140;SDS011;559;48.628;8.924;2022-08-11T00:06:08;9.90;;;9.40;;
1140;SDS011;559;48.628;8.924;2022-08-11T00:08:37;10.77;;;10.30;;
1140;SDS011;559;48.628;8.924;2022-08-11T00:11:06;12.80;;;12.23;;
1140;SDS011;559;48.628;8.924;2022-08-11T00:13:35;18.00;;;17.40;;
1140;SDS011;559;48.628;8.924;2022-08-11T00:16:03;17.00;;;16.50;;
1140;SDS011;559;48.628;8.924;2022-08-11T00:18:39;18.30;;;17.80;;
1140;SDS011;559;48.628;8.924;2022-08-11T00:21:07;18.33;;;17.63;;
1140;SDS011;559;48.628;8.924;2022-08-11T00:23:34;19.50;;;18.50;;
1140;SDS011;559;48.628;8.924;2022-08-11T00:26:08;13.70;;;13.20;;
1140;SDS011;559;48.628;8.924;2022-08-11T00:28:35;16.20;;;15.70;;
1140;SDS011;559;48.628;8.924;2022-08-11T00:31:02;19.00;;;18.30;;
1140;SDS011;559;48.628;8.924;2022-08-11T00:33:36;18.73;;;17.97;;
1140;SDS011;559;48.628;8.924;2022-08-11T00:36:04;16.27;;;15.67;;
1140;SDS011;559;48.628;8.924;2022-08-11T00:38:33;20.23;;;19.60;;
1140;SDS011;559;48.628;8.924;2022-08-11T00:46:53;38.53;;;37.13;;
1140;SDS011;559;48.628;8.924;2022-08-11T00:49:27;34.93;;;33.80;;
1140;SDS011;559;48.628;8.924;2022-08-11T00:52:06;31.47;;;30.57;;
1140;SDS011;559;48.628;8.924;2022-08-11T00:54:42;39.03;;;37.83;;
1140;SDS011;559;48.628;8.924;2022-08-11T01:00:31;36.37;;;35.10;;
1140;SDS011;559;48.628;8.924;2022-08-11T01:05:50;42.73;;;41.13;;
1140;SDS011;559;48.628;8.924;2022-08-11T01:11:33;34.37;;;33.37;;
1140;SDS011;559;48.628;8.924;2022-08-11T01:14:25;32.83;;;31.83;;
1140;SDS011;559;48.628;8.924;2022-08-11T01:20:13;42.17;;;41.00;;
1140;SDS011;559;48.628;8.924;2022-08-11T01:23:02;45.90;;;44.60;;
1140;SDS011;559;48.628;8.924;2022-08-11T01:32:19;74.37;;;72.30;;
1140;SDS011;559;48.628;8.924;2022-08-11T01:35:18;87.43;;;85.00;;
1140;SDS011;559;48.628;8.924;2022-08-11T01:44:03;118.10;;;114.90;;
1140;SDS011;559;48.628;8.924;2022-08-11T01:46:55;132.50;;;128.90;;
1140;SDS011;559;48.628;8.924;2022-08-11T01:49:34;127.30;;;123.77;;
1140;SDS011;559;48.628;8.924;2022-08-11T01:52:14;128.07;;;124.67;;
1140;SDS011;559;48.628;8.924;2022-08-11T01:54:45;124.17;;;120.60;;
1140;SDS011;559;48.628;8.924;2022-08-11T01:57:20;123.57;;;120.13;;
1140;SDS011;559;48.628;8.924;2022-08-11T01:59:54;109.40;;;106.40;;
1140;SDS011;559;48.628;8.924;2022-08-11T02:02:30;97.63;;;95.07;;
1140;SDS011;559;48.628;8.924;2022-08-11T02:05:22;94.07;;;91.37;;
1140;SDS011;559;48.628;8.924;2022-08-11T02:07:58;98.50;;;95.90;;
1140;SDS011;559;48.628;8.924;2022-08-11T02:10:30;99.83;;;97.13;;
1140;SDS011;559;48.628;8.924;2022-08-11T02:13:21;95.47;;;92.80;;
1140;SDS011;559;48.628;8.924;2022-08-11T02:15:54;93.07;;;90.47;;
1140;SDS011;559;48.628;8.924;2022-08-11T02:18:31;100.27;;;97.50;;
1140;SDS011;559;48.628;8.924;2022-08-11T02:21:14;103.97;;;101.07;;
1140;SDS011;559;48.628;8.924;2022-08-11T02:24:10;107.47;;;104.63;;
1140;SDS011;559;48.628;8.924;2022-08-11T02:26:40;109.90;;;106.93;;
1140;SDS011;559;48.628;8.924;2022-08-11T02:29:11;93.87;;;91.23;;
1140;SDS011;559;48.628;8.924;2022-08-11T02:31:46;85.03;;;82.73;;
1140;SDS011;559;48.628;8.924;2022-08-11T02:34:38;99.40;;;96.60;;
1140;SDS011;559;48.628;8.924;2022-08-11T02:37:10;97.63;;;94.93;;
1140;SDS011;559;48.628;8.924;2022-08-11T02:39:45;113.10;;;109.97;;
1140;SDS011;559;48.628;8.924;2022-08-11T02:42:15;113.37;;;110.27;;
1140;SDS011;559;48.628;8.924;2022-08-11T02:44:53;113.40;;;110.27;;
1140;SDS011;559;48.628;8.924;2022-08-11T02:47:28;138.53;;;134.47;;
1140;SDS011;559;48.628;8.924;2022-08-11T02:50:02;143.17;;;138.87;;
1140;SDS011;559;48.628;8.924;2022-08-11T02:52:36;156.13;;;151.23;;
1140;SDS011;559;48.628;8.924;2022-08-11T02:55:23;149.97;;;145.20;;
1140;SDS011;559;48.628;8.924;2022-08-11T02:57:54;145.90;;;141.47;;
1140;SDS011;559;48.628;8.924;2022-08-11T03:00:23;156.40;;;151.47;;
1140;SDS011;559;48.628;8.924;2022-08-11T03:02:59;152.83;;;147.67;;
1140;SDS011;559;48.628;8.924;2022-08-11T03:05:46;150.63;;;145.60;;
1140;SDS011;559;48.628;8.924;2022-08-11T03:08:22;153.60;;;148.70;;
1140;SDS011;559;48.628;8.924;2022-08-11T03:10:59;140.57;;;136.40;;
1140;SDS011;559;48.628;8.924;2022-08-11T03:13:45;138.40;;;134.15;;
1140;SDS011;559;48.628;8.924;2022-08-11T03:16:36;139.90;;;135.50;;
1140;SDS011;559;48.628;8.924;2022-08-11T03:19:13;153.13;;;148.40;;
1140;SDS011;559;48.628;8.924;2022-08-11T03:21:45;165.77;;;160.23;;
1140;SDS011;559;48.628;8.924;2022-08-11T03:24:20;155.80;;;150.70;;
1140;SDS011;559;48.628;8.924;2022-08-11T03:26:57;160.48;;;155.10;;
1140;SDS011;559;48.628;8.924;2022-08-11T03:29:33;147.82;;;143.02;;
1140;SDS011;559;48.628;8.924;2022-08-11T03:32:01;155.68;;;150.38;;
1140;SDS011;559;48.628;8.924;2022-08-11T03:34:31;154.50;;;149.40;;
1140;SDS011;559;48.628;8.924;2022-08-11T03:37:04;156.53;;;151.40;;
1140;SDS011;559;48.628;8.924;2022-08-11T03:43:36;147.07;;;142.40;;
1140;SDS011;559;48.628;8.924;2022-08-11T03:46:14;147.43;;;142.53;;
1140;SDS011;559;48.628;8.924;2022-08-11T03:48:48;144.57;;;139.47;;
1140;SDS011;559;48.628;8.924;2022-08-11T03:51:24;150.73;;;145.52;;
1140;SDS011;559;48.628;8.924;2022-08-11T03:53:59;153.97;;;148.67;;
1140;SDS011;559;48.628;8.924;2022-08-11T04:02:44;157.90;;;152.05;;
1140;SDS011;559;48.628;8.924;2022-08-11T04:14:30;152.67;;;146.90;;
1140;SDS011;559;48.628;8.924;2022-08-11T04:20:52;154.27;;;148.68;;
1140;SDS011;559;48.628;8.924;2022-08-11T04:23:57;150.43;;;144.93;;
1140;SDS011;559;48.628;8.924;2022-08-11T04:27:00;155.00;;;149.27;;
1140;SDS011;559;48.628;8.924;2022-08-11T04:29:52;150.50;;;145.00;;
1140;SDS011;559;48.628;8.924;2022-08-11T04:32:30;147.57;;;142.20;;
1140;SDS011;559;48.628;8.924;2022-08-11T04:35:15;146.27;;;141.17;;
1140;SDS011;559;48.628;8.924;2022-08-11T04:41:04;146.95;;;141.48;;
1140;SDS011;559;48.628;8.924;2022-08-11T04:44:06;154.30;;;148.57;;
1140;SDS011;559;48.628;8.924;2022-08-11T04:46:58;143.90;;;138.70;;
1140;SDS011;559;48.628;8.924;2022-08-11T04:49:39;143.83;;;138.73;;
1140;SDS011;559;48.628;8.924;2022-08-11T05:02:32;145.55;;;140.48;;
1140;SDS011;559;48.628;8.924;2022-08-11T05:05:14;142.73;;;137.50;;
1140;SDS011;559;48.628;8.924;2022-08-11T05:11:33;153.97;;;148.40;;
1140;SDS011;559;48.628;8.924;2022-08-11T05:14:17;153.67;;;147.83;;
1140;SDS011;559;48.628;8.924;2022-08-11T05:17:10;160.67;;;154.73;;
1140;SDS011;559;48.628;8.924;2022-08-11T05:19:56;158.83;;;152.93;;
1140;SDS011;559;48.628;8.924;2022-08-11T05:22:41;149.90;;;144.40;;
1140;SDS011;559;48.628;8.924;2022-08-11T05:25:30;160.13;;;154.30;;
1140;SDS011;559;48.628;8.924;2022-08-11T05:28:18;146.60;;;141.50;;
1140;SDS011;559;48.628;8.924;2022-08-11T05:31:11;149.50;;;144.10;;
1140;SDS011;559;48.628;8.924;2022-08-11T05:33:57;139.00;;;134.20;;
1140;SDS011;559;48.628;8.924;2022-08-11T05:36:44;128.90;;;125.00;;
1140;SDS011;559;48.628;8.924;2022-08-11T05:39:14;125.17;;;121.33;;
1140;SDS011;559;48.628;8.924;2022-08-11T05:41:59;134.63;;;130.67;;
1140;SDS011;559;48.628;8.924;2022-08-11T05:44:45;130.53;;;126.47;;
1140;SDS011;559;48.628;8.924;2022-08-11T05:47:29;124.47;;;120.77;;
1140;SDS011;559;48.628;8.924;2022-08-11T05:50:14;124.00;;;120.20;;
1140;SDS011;559;48.628;8.924;2022-08-11T05:53:00;111.10;;;107.87;;
1140;SDS011;559;48.628;8.924;2022-08-11T05:55:44;99.47;;;96.67;;
1140;SDS011;559;48.628;8.924;2022-08-11T05:58:33;102.73;;;99.63;;
1140;SDS011;559;48.628;8.924;2022-08-11T06:01:01;100.30;;;97.50;;
1140;SDS011;559;48.628;8.924;2022-08-11T06:03:29;82.07;;;79.67;;
1140;SDS011;559;48.628;8.924;2022-08-11T06:05:56;75.43;;;73.03;;
1140;SDS011;559;48.628;8.924;2022-08-11T06:08:26;63.50;;;61.70;;
1140;SDS011;559;48.628;8.924;2022-08-11T06:10:57;50.00;;;48.50;;
1140;SDS011;559;48.628;8.924;2022-08-11T06:13:25;35.53;;;34.20;;
1140;SDS011;559;48.628;8.924;2022-08-11T06:15:52;31.63;;;30.63;;
1140;SDS011;559;48.628;8.924;2022-08-11T06:18:21;21.80;;;20.83;;
1140;SDS011;559;48.628;8.924;2022-08-11T06:20:48;18.13;;;17.17;;
1140;SDS011;559;48.628;8.924;2022-08-11T06:23:16;25.60;;;24.80;;
1140;SDS011;559;48.628;8.924;2022-08-11T06:25:44;27.40;;;26.40;;
1140;SDS011;559;48.628;8.924;2022-08-11T06:28:14;43.87;;;42.40;;
1140;SDS011;559;48.628;8.924;2022-08-11T06:30:44;55.80;;;54.00;;
1140;SDS011;559;48.628;8.924;2022-08-11T06:33:12;74.43;;;72.33;;
1140;SDS011;559;48.628;8.924;2022-08-11T06:35:46;101.33;;;98.53;;
1140;SDS011;559;48.628;8.924;2022-08-11T06:38:21;96.07;;;93.27;;
1140;SDS011;559;48.628;8.924;2022-08-11T06:40:53;94.13;;;91.53;;
1140;SDS011;559;48.628;8.924;2022-08-11T06:43:44;82.10;;;79.70;;
1140;SDS011;559;48.628;8.924;2022-08-11T06:46:16;60.53;;;58.63;;
1140;SDS011;559;48.628;8.924;2022-08-11T06:48:48;64.37;;;62.27;;
1140;SDS011;559;48.628;8.924;2022-08-11T06:51:16;52.73;;;50.80;;
1140;SDS011;559;48.628;8.924;2022-08-11T06:53:43;35.50;;;34.40;;
1140;SDS011;559;48.628;8.924;2022-08-11T06:56:10;24.70;;;23.50;;
1140;SDS011;559;48.628;8.924;2022-08-11T06:58:55;17.20;;;16.40;;
1140;SDS011;559;48.628;8.924;2022-08-11T07:01:43;14.37;;;13.77;;
1140;SDS011;559;48.628;8.924;2022-08-11T07:04:17;9.10;;;8.67;;
1140;SDS011;559;48.628;8.924;2022-08-11T07:06:53;9.27;;;8.87;;
1140;SDS011;559;48.628;8.924;2022-08-11T07:13:00;4.47;;;4.17;;
1140;SDS011;559;48.628;8.924;2022-08-11T07:15:45;3.93;;;3.67;;
1140;SDS011;559;48.628;8.924;2022-08-11T07:18:17;4.30;;;4.00;;
1140;SDS011;559;48.628;8.924;2022-08-11T07:21:11;4.33;;;3.60;;
1140;SDS011;559;48.628;8.924;2022-08-11T07:24:00;6.00;;;3.80;;
1140;SDS011;559;48.628;8.924;2022-08-11T07:26:47;4.00;;;3.70;;
1140;SDS011;559;48.628;8.924;2022-08-11T07:29:34;4.33;;;3.93;;
1140;SDS011;559;48.628;8.924;2022-08-11T07:32:06;4.00;;;3.60;;
1140;SDS011;559;48.628;8.924;2022-08-11T07:34:39;7.00;;;4.13;;
1140;SDS011;559;48.628;8.924;2022-08-11T07:37:11;3.90;;;3.50;;
1140;SDS011;559;48.628;8.924;2022-08-11T07:39:43;3.57;;;3.37;;
1140;SDS011;559;48.628;8.924;2022-08-11T07:42:11;4.50;;;3.90;;
1140;SDS011;559;48.628;8.924;2022-08-11T07:44:39;4.33;;;3.93;;
1140;SDS011;559;48.628;8.924;2022-08-11T07:47:21;4.00;;;3.50;;
1140;SDS011;559;48.628;8.924;2022-08-11T07:50:08;3.90;;;3.50;;
1140;SDS011;559;48.628;8.924;2022-08-11T07:52:53;3.43;;;3.13;;
1140;SDS011;559;48.628;8.924;2022-08-11T07:55:22;3.47;;;3.17;;
1140;SDS011;559;48.628;8.924;2022-08-11T07:57:50;3.13;;;2.93;;
1140;SDS011;559;48.628;8.924;2022-08-11T08:00:35;3.90;;;3.60;;
1140;SDS011;559;48.628;8.924;2022-08-11T08:03:19;2.87;;;2.60;;
1140;SDS011;559;48.628;8.924;2022-08-11T08:06:04;3.27;;;3.00;;
1140;SDS011;559;48.628;8.924;2022-08-11T08:08:48;3.40;;;3.10;;
1140;SDS011;559;48.628;8.924;2022-08-11T08:11:34;4.70;;;3.80;;
1140;SDS011;559;48.628;8.924;2022-08-11T08:14:18;3.60;;;2.83;;
1140;SDS011;559;48.628;8.924;2022-08-11T08:17:02;3.80;;;3.30;;
1140;SDS011;559;48.628;8.924;2022-08-11T08:19:47;3.77;;;3.07;;
1140;SDS011;559;48.628;8.924;2022-08-11T08:22:14;6.43;;;2.57;;
1140;SDS011;559;48.628;8.924;2022-08-11T08:24:42;4.50;;;3.00;;
1140;SDS011;559;48.628;8.924;2022-08-11T08:27:10;5.17;;;4.10;;
1140;SDS011;559;48.628;8.924;2022-08-11T08:29:38;5.87;;;2.63;;
1140;SDS011;559;48.628;8.924;2022-08-11T08:32:23;3.10;;;2.90;;
1140;SDS011;559;48.628;8.924;2022-08-11T08:34:52;3.37;;;2.87;;
1140;SDS011;559;48.628;8.924;2022-08-11T08:37:20;2.70;;;2.50;;
1140;SDS011;559;48.628;8.924;2022-08-11T08:39:47;3.30;;;3.00;;
1140;SDS011;559;48.628;8.924;2022-08-11T08:42:17;3.30;;;2.90;;
1140;SDS011;559;48.628;8.924;2022-08-11T08:44:55;4.30;;;3.90;;
1140;SDS011;559;48.628;8.924;2022-08-11T08:47:23;3.20;;;2.80;;
1140;SDS011;559;48.628;8.924;2022-08-11T08:49:51;3.50;;;3.20;;
1140;SDS011;559;48.628;8.924;2022-08-11T08:52:25;3.67;;;3.37;;
1140;SDS011;559;48.628;8.924;2022-08-11T08:54:54;3.70;;;3.40;;
1140;SDS011;559;48.628;8.924;2022-08-11T08:57:23;2.90;;;2.70;;
1140;SDS011;559;48.628;8.924;2022-08-11T08:59:53;3.13;;;2.90;;
1140;SDS011;559;48.628;8.924;2022-08-11T09:02:22;3.80;;;2.93;;
1140;SDS011;559;48.628;8.924;2022-08-11T09:04:50;10.53;;;3.20;;
1140;SDS011;559;48.628;8.924;2022-08-11T09:07:17;3.00;;;2.80;;
1140;SDS011;559;48.628;8.924;2022-08-11T09:09:49;3.00;;;2.80;;
1140;SDS011;559;48.628;8.924;2022-08-11T09:12:17;3.40;;;3.10;;
1140;SDS011;559;48.628;8.924;2022-08-11T09:14:47;3.43;;;2.53;;
1140;SDS011;559;48.628;8.924;2022-08-11T09:17:28;2.63;;;2.20;;
1140;SDS011;559;48.628;8.924;2022-08-11T09:19:58;4.20;;;2.83;;
1140;SDS011;559;48.628;8.924;2022-08-11T09:22:26;2.60;;;2.40;;
1140;SDS011;559;48.628;8.924;2022-08-11T09:25:12;3.30;;;2.50;;
1140;SDS011;559;48.628;8.924;2022-08-11T09:27:56;2.70;;;2.50;;
1140;SDS011;559;48.628;8.924;2022-08-11T09:30:25;5.23;;;2.67;;
1140;SDS011;559;48.628;8.924;2022-08-11T09:32:52;3.10;;;2.90;;
1140;SDS011;559;48.628;8.924;2022-08-11T09:35:22;2.80;;;2.60;;
1140;SDS011;559;48.628;8.924;2022-08-11T09:37:49;3.13;;;2.77;;
1140;SDS011;559;48.628;8.924;2022-08-11T09:40:33;2.97;;;2.70;;
1140;SDS011;559;48.628;8.924;2022-08-11T09:43:02;3.80;;;2.27;;
1140;SDS011;559;48.628;8.924;2022-08-11T09:45:51;3.00;;;2.80;;
1140;SDS011;559;48.628;8.924;2022-08-11T09:48:18;3.00;;;2.80;;
1140;SDS011;559;48.628;8.924;2022-08-11T09:50:46;6.73;;;2.70;;
1140;SDS011;559;48.628;8.924;2022-08-11T09:53:15;4.80;;;2.70;;
1140;SDS011;559;48.628;8.924;2022-08-11T09:55:42;3.10;;;2.50;;
1140;SDS011;559;48.628;8.924;2022-08-11T09:58:09;3.43;;;2.70;;
1140;SDS011;559;48.628;8.924;2022-08-11T10:00:39;3.50;;;2.57;;
1140;SDS011;559;48.628;8.924;2022-08-11T10:03:08;2.67;;;2.47;;
1140;SDS011;559;48.628;8.924;2022-08-11T10:05:37;4.00;;;2.47;;
1140;SDS011;559;48.628;8.924;2022-08-11T10:08:22;2.37;;;2.00;;
1140;SDS011;559;48.628;8.924;2022-08-11T10:10:52;1.90;;;1.63;;
1140;SDS011;559;48.628;8.924;2022-08-11T10:13:20;4.73;;;2.27;;
1140;SDS011;559;48.628;8.924;2022-08-11T10:15:50;2.63;;;2.43;;
1140;SDS011;559;48.628;8.924;2022-08-11T10:18:22;2.33;;;2.13;;
1140;SDS011;559;48.628;8.924;2022-08-11T10:21:10;3.10;;;2.23;;
1140;SDS011;559;48.628;8.924;2022-08-11T10:23:39;2.70;;;2.40;;
1140;SDS011;559;48.628;8.924;2022-08-11T10:26:23;2.83;;;1.93;;
1140;SDS011;559;48.628;8.924;2022-08-11T10:29:18;2.13;;;1.90;;
1140;SDS011;559;48.628;8.924;2022-08-11T10:32:04;3.33;;;2.33;;
1140;SDS011;559;48.628;8.924;2022-08-11T10:34:50;3.00;;;2.10;;
1140;SDS011;559;48.628;8.924;2022-08-11T10:37:18;3.07;;;2.50;;
1140;SDS011;559;48.628;8.924;2022-08-11T10:39:45;4.93;;;2.60;;
1140;SDS011;559;48.628;8.924;2022-08-11T10:42:12;3.67;;;2.20;;
1140;SDS011;559;48.628;8.924;2022-08-11T10:44:57;4.53;;;2.40;;
1140;SDS011;559;48.628;8.924;2022-08-11T10:47:26;1.87;;;1.77;;
1140;SDS011;559;48.628;8.924;2022-08-11T10:50:06;2.23;;;2.10;;
1140;SDS011;559;48.628;8.924;2022-08-11T10:52:52;4.40;;;2.47;;
1140;SDS011;559;48.628;8.924;2022-08-11T10:55:37;2.30;;;2.10;;
1140;SDS011;559;48.628;8.924;2022-08-11T10:58:22;2.20;;;2.00;;
1140;SDS011;559;48.628;8.924;2022-08-11T11:01:07;3.10;;;2.57;;
1140;SDS011;559;48.628;8.924;2022-08-11T11:03:34;2.90;;;2.27;;
1140;SDS011;559;48.628;8.924;2022-08-11T11:06:05;2.83;;;2.60;;
1140;SDS011;559;48.628;8.924;2022-08-11T11:08:35;2.50;;;2.30;;
1140;SDS011;559;48.628;8.924;2022-08-11T11:11:20;2.47;;;2.10;;
1140;SDS011;559;48.628;8.924;2022-08-11T11:13:48;4.83;;;2.03;;
1140;SDS011;559;48.628;8.924;2022-08-11T11:16:33;1.97;;;1.70;;
1140;SDS011;559;48.628;8.924;2022-08-11T11:19:18;2.20;;;2.00;;
1140;SDS011;559;48.628;8.924;2022-08-11T11:21:51;2.30;;;2.10;;
1140;SDS011;559;48.628;8.924;2022-08-11T11:24:40;3.67;;;2.70;;
1140;SDS011;559;48.628;8.924;2022-08-11T11:27:13;2.37;;;2.00;;
1140;SDS011;559;48.628;8.924;2022-08-11T11:29:48;3.27;;;3.03;;
1140;SDS011;559;48.628;8.924;2022-08-11T11:32:23;2.17;;;1.97;;
1140;SDS011;559;48.628;8.924;2022-08-11T11:34:59;3.80;;;2.40;;
1140;SDS011;559;48.628;8.924;2022-08-11T11:37:32;2.60;;;1.83;;
1140;SDS011;559;48.628;8.924;2022-08-11T11:39:59;2.00;;;1.90;;
1140;SDS011;559;48.628;8.924;2022-08-11T11:42:26;2.53;;;2.07;;
1140;SDS011;559;48.628;8.924;2022-08-11T11:44:54;3.33;;;1.70;;
1140;SDS011;559;48.628;8.924;2022-08-11T11:47:21;4.77;;;2.07;;
1140;SDS011;559;48.628;8.924;2022-08-11T11:49:48;7.60;;;2.90;;
1140;SDS011;559;48.628;8.924;2022-08-11T11:52:15;4.63;;;1.77;;
1140;SDS011;559;48.628;8.924;2022-08-11T11:54:45;1.93;;;1.73;;
1140;SDS011;559;48.628;8.924;2022-08-11T11:57:14;2.20;;;2.10;;
1140;SDS011;559;48.628;8.924;2022-08-11T11:59:59;5.50;;;2.73;;
1140;SDS011;559;48.628;8.924;2022-08-11T12:02:54;2.43;;;2.23;;
1140;SDS011;559;48.628;8.924;2022-08-11T12:05:22;2.77;;;1.93;;
1140;SDS011;559;48.628;8.924;2022-08-11T12:07:48;1.77;;;1.67;;
1140;SDS011;559;48.628;8.924;2022-08-11T12:10:34;2.93;;;2.10;;
1140;SDS011;559;48.628;8.924;2022-08-11T12:13:01;3.77;;;2.27;;
1140;SDS011;559;48.628;8.924;2022-08-11T12:15:45;3.43;;;2.70;;
1140;SDS011;559;48.628;8.924;2022-08-11T12:18:13;2.90;;;2.27;;
1140;SDS011;559;48.628;8.924;2022-08-11T12:20:40;4.30;;;2.73;;
1140;SDS011;559;48.628;8.924;2022-08-11T12:23:07;4.80;;;2.40;;
1140;SDS011;559;48.628;8.924;2022-08-11T12:25:53;2.50;;;1.80;;
1140;SDS011;559;48.628;8.924;2022-08-11T12:28:37;3.00;;;1.77;;
1140;SDS011;559;48.628;8.924;2022-08-11T12:31:04;3.07;;;2.50;;
1140;SDS011;559;48.628;8.924;2022-08-11T12:33:34;2.77;;;2.20;;
1140;SDS011;559;48.628;8.924;2022-08-11T12:36:00;2.27;;;2.10;;
1140;SDS011;559;48.628;8.924;2022-08-11T12:38:27;2.27;;;2.07;;
1140;SDS011;559;48.628;8.924;2022-08-11T12:40:56;1.97;;;1.57;;
1140;SDS011;559;48.628;8.924;2022-08-11T12:43:41;5.07;;;2.27;;
1140;SDS011;559;48.628;8.924;2022-08-11T12:46:28;2.60;;;2.10;;
1140;SDS011;559;48.628;8.924;2022-08-11T12:48:57;1.97;;;1.63;;
1140;SDS011;559;48.628;8.924;2022-08-11T12:51:44;2.43;;;2.13;;
1140;SDS011;559;48.628;8.924;2022-08-11T12:54:27;2.17;;;1.87;;
1140;SDS011;559;48.628;8.924;2022-08-11T12:56:59;4.63;;;2.00;;
1140;SDS011;559;48.628;8.924;2022-08-11T12:59:44;4.07;;;1.80;;
1140;SDS011;559;48.628;8.924;2022-08-11T13:02:29;2.93;;;2.53;;
1140;SDS011;559;48.628;8.924;2022-08-11T13:05:13;3.23;;;2.00;;
1140;SDS011;559;48.628;8.924;2022-08-11T13:07:41;3.63;;;1.80;;
1140;SDS011;559;48.628;8.924;2022-08-11T13:10:11;3.23;;;2.00;;
1140;SDS011;559;48.628;8.924;2022-08-11T13:12:40;2.33;;;2.13;;
1140;SDS011;559;48.628;8.924;2022-08-11T13:15:13;3.00;;;1.80;;
1140;SDS011;559;48.628;8.924;2022-08-11T13:17:40;2.83;;;1.90;;
1140;SDS011;559;48.628;8.924;2022-08-11T13:20:08;2.30;;;2.10;;
1140;SDS011;559;48.628;8.924;2022-08-11T13:22:36;1.77;;;1.67;;
1140;SDS011;559;48.628;8.924;2022-08-11T13:25:03;3.90;;;2.10;;
1140;SDS011;559;48.628;8.924;2022-08-11T13:27:31;2.43;;;1.50;;
1140;SDS011;559;48.628;8.924;2022-08-11T13:29:59;2.50;;;2.30;;
1140;SDS011;559;48.628;8.924;2022-08-11T13:32:44;1.93;;;1.50;;
1140;SDS011;559;48.628;8.924;2022-08-11T13:35:11;2.07;;;1.87;;
1140;SDS011;559;48.628;8.924;2022-08-11T13:37:39;2.00;;;1.80;;
1140;SDS011;559;48.628;8.924;2022-08-11T13:40:08;3.10;;;2.30;;
1140;SDS011;559;48.628;8.924;2022-08-11T13:42:36;3.20;;;1.90;;
1140;SDS011;559;48.628;8.924;2022-08-11T13:45:05;2.53;;;1.93;;
1140;SDS011;559;48.628;8.924;2022-08-11T13:47:33;2.13;;;1.80;;
1140;SDS011;559;48.628;8.924;2022-08-11T13:50:00;2.07;;;1.97;;
1140;SDS011;559;48.628;8.924;2022-08-11T13:52:27;4.60;;;2.43;;
1140;SDS011;559;48.628;8.924;2022-08-11T13:54:54;2.60;;;1.50;;
1140;SDS011;559;48.628;8.924;2022-08-11T13:57:20;3.20;;;2.10;;
1140;SDS011;559;48.628;8.924;2022-08-11T13:59:51;2.00;;;1.80;;
1140;SDS011;559;48.628;8.924;2022-08-11T14:02:20;10.60;;;2.10;;
1140;SDS011;559;48.628;8.924;2022-08-11T14:04:51;1.80;;;1.57;;
1140;SDS011;559;48.628;8.924;2022-08-11T14:07:20;1.93;;;1.70;;
1140;SDS011;559;48.628;8.924;2022-08-11T14:09:47;2.17;;;1.83;;
1140;SDS011;559;48.628;8.924;2022-08-11T14:12:20;1.57;;;1.47;;
1140;SDS011;559;48.628;8.924;2022-08-11T14:15:10;2.17;;;1.93;;
1140;SDS011;559;48.628;8.924;2022-08-11T14:17:45;2.00;;;1.90;;
1140;SDS011;559;48.628;8.924;2022-08-11T14:20:15;2.30;;;2.10;;
1140;SDS011;559;48.628;8.924;2022-08-11T14:22:42;2.10;;;1.90;;
1140;SDS011;559;48.628;8.924;2022-08-11T14:25:10;2.50;;;2.30;;
1140;SDS011;559;48.628;8.924;2022-08-11T14:27:39;2.10;;;2.00;;
1140;SDS011;559;48.628;8.924;2022-08-11T14:30:06;2.90;;;2.33;;
1140;SDS011;559;48.628;8.924;2022-08-11T14:32:55;1.90;;;1.70;;
1140;SDS011;559;48.628;8.924;2022-08-11T14:35:22;2.83;;;2.20;;
1140;SDS011;559;48.628;8.924;2022-08-11T14:37:50;2.67;;;2.17;;
1140;SDS011;559;48.628;8.924;2022-08-11T14:40:17;4.30;;;2.20;;
1140;SDS011;559;48.628;8.924;2022-08-11T14:42:57;3.40;;;2.33;;
1140;SDS011;559;48.628;8.924;2022-08-11T14:45:42;5.30;;;2.43;;
1140;SDS011;559;48.628;8.924;2022-08-11T14:48:29;3.90;;;2.07;;
1140;SDS011;559;48.628;8.924;2022-08-11T14:50:55;1.93;;;1.73;;
1140;SDS011;559;48.628;8.924;2022-08-11T14:53:25;3.07;;;2.40;;
1140;SDS011;559;48.628;8.924;2022-08-11T14:55:51;2.27;;;1.73;;
1140;SDS011;559;48.628;8.924;2022-08-11T14:58:36;2.17;;;1.97;;
1140;SDS011;559;48.628;8.924;2022-08-11T15:01:03;2.40;;;2.20;;
1140;SDS011;559;48.628;8.924;2022-08-11T15:03:51;10.83;;;3.87;;
1140;SDS011;559;48.628;8.924;2022-08-11T15:06:17;1.40;;;1.30;;
1140;SDS011;559;48.628;8.924;2022-08-11T15:08:44;2.23;;;2.00;;
1140;SDS011;559;48.628;8.924;2022-08-11T15:11:21;1.73;;;1.63;;
1140;SDS011;559;48.628;8.924;2022-08-11T15:14:07;3.53;;;2.33;;
1140;SDS011;559;48.628;8.924;2022-08-11T15:16:35;2.77;;;1.90;;
1140;SDS011;559;48.628;8.924;2022-08-11T15:19:21;2.40;;;2.20;;
1140;SDS011;559;48.628;8.924;2022-08-11T15:21:56;2.70;;;2.50;;
1140;SDS011;559;48.628;8.924;2022-08-11T15:24:41;2.60;;;2.10;;
1140;SDS011;559;48.628;8.924;2022-08-11T15:27:08;2.37;;;2.17;;
1140;SDS011;559;48.628;8.924;2022-08-11T15:29:55;2.03;;;1.90;;
1140;SDS011;559;48.628;8.924;2022-08-11T15:32:40;2.20;;;1.70;;
1140;SDS011;559;48.628;8.924;2022-08-11T15:35:25;3.60;;;2.30;;
1140;SDS011;559;48.628;8.924;2022-08-11T15:38:10;1.83;;;1.70;;
1140;SDS011;559;48.628;8.924;2022-08-11T15:40:37;8.93;;;2.10;;
1140;SDS011;559;48.628;8.924;2022-08-11T15:43:27;1.87;;;1.73;;
1140;SDS011;559;48.628;8.924;2022-08-11T15:46:13;3.00;;;1.90;;
1140;SDS011;559;48.628;8.924;2022-08-11T15:48:42;2.00;;;1.70;;
1140;SDS011;559;48.628;8.924;2022-08-11T15:51:15;2.33;;;1.90;;
1140;SDS011;559;48.628;8.924;2022-08-11T15:53:48;2.47;;;1.83;;
1140;SDS011;559;48.628;8.924;2022-08-11T15:56:17;3.07;;;1.97;;
1140;SDS011;559;48.628;8.924;2022-08-11T15:58:44;3.60;;;2.10;;
1140;SDS011;559;48.628;8.924;2022-08-11T16:01:38;2.97;;;2.67;;
1140;SDS011;559;48.628;8.924;2022-08-11T16:04:25;3.67;;;1.83;;
1140;SDS011;559;48.628;8.924;2022-08-11T16:06:54;2.13;;;1.93;;
1140;SDS011;559;48.628;8.924;2022-08-11T16:09:25;2.47;;;1.90;;
1140;SDS011;559;48.628;8.924;2022-08-11T16:11:54;3.13;;;2.47;;
1140;SDS011;559;48.628;8.924;2022-08-11T16:14:24;3.07;;;2.37;;
1140;SDS011;559;48.628;8.924;2022-08-11T16:17:10;3.42;;;2.05;;
1140;SDS011;559;48.628;8.924;2022-08-11T16:19:38;3.50;;;2.20;;
1140;SDS011;559;48.628;8.924;2022-08-11T16:22:08;1.63;;;1.53;;
1140;SDS011;559;48.628;8.924;2022-08-11T16:24:36;2.10;;;2.00;;
1140;SDS011;559;48.628;8.924;2022-08-11T16:27:08;2.50;;;2.30;;
1140;SDS011;559;48.628;8.924;2022-08-11T16:29:36;3.07;;;2.77;;
1140;SDS011;559;48.628;8.924;2022-08-11T16:32:03;5.77;;;2.70;;
1140;SDS011;559;48.628;8.924;2022-08-11T16:34:43;1.93;;;1.60;;
1140;SDS011;559;48.628;8.924;2022-08-11T16:37:29;2.30;;;1.90;;
1140;SDS011;559;48.628;8.924;2022-08-11T16:40:13;2.60;;;1.90;;
1140;SDS011;559;48.628;8.924;2022-08-11T16:42:40;3.23;;;1.80;;
1140;SDS011;559;48.628;8.924;2022-08-11T16:45:25;2.03;;;1.80;;
1140;SDS011;559;48.628;8.924;2022-08-11T16:48:10;2.00;;;1.90;;
1140;SDS011;559;48.628;8.924;2022-08-11T16:50:37;2.70;;;2.27;;
1140;SDS011;559;48.628;8.924;2022-08-11T16:53:07;3.40;;;1.67;;
1140;SDS011;559;48.628;8.924;2022-08-11T16:55:33;2.23;;;2.03;;
1140;SDS011;559;48.628;8.924;2022-08-11T16:58:00;1.77;;;1.67;;
1140;SDS011;559;48.628;8.924;2022-08-11T17:00:45;1.63;;;1.53;;
1140;SDS011;559;48.628;8.924;2022-08-11T17:03:13;2.43;;;2.23;;
1140;SDS011;559;48.628;8.924;2022-08-11T17:05:57;1.90;;;1.80;;
1140;SDS011;559;48.628;8.924;2022-08-11T17:08:45;4.60;;;1.83;;
1140;SDS011;559;48.628;8.924;2022-08-11T17:11:31;4.10;;;3.17;;
1140;SDS011;559;48.628;8.924;2022-08-11T17:14:19;1.93;;;1.70;;
1140;SDS011;559;48.628;8.924;2022-08-11T17:16:48;4.83;;;2.30;;
1140;SDS011;559;48.628;8.924;2022-08-11T17:19:17;2.40;;;2.20;;
1140;SDS011;559;48.628;8.924;2022-08-11T17:21:47;2.20;;;1.70;;